Time;durP1;ratioP1;P1;durP2;ratioP2;P2;SDS_P1;SDS_P2;PMS_P1;PMS_P2;Temp;Humidity;BMP_temperature;BMP_pressure;BME280_temperature;BME280_humidity;BME280_pressure;Samples;Min_cycle;Max_cycle;Signal;HPM_P1;HPM_P2
2023/05/04 00:00:09;;;;;;;;;;;;;;;;;;6206741;22;19978;-84
2023/05/04 00:02:35;;;;;;;;;;;;;;;;;;6209421;22;19926;-84
2023/05/04 00:05:01;;;;;;;;;;;;;;;;;;6236139;22;19915;-83
2023/05/04 00:07:27;;;;;;;;;;;;;;;;;;6262967;22;19993;-83
2023/05/04 00:09:53;;;;;;;;;;;;;;;;;;6211035;22;20287;-84
2023/05/04 00:12:19;;;;;;;;;;;;;;;;;;6232927;22;19925;-84
2023/05/04 00:14:45;;;;;;;;;;;;;;;;;;6236422;22;19919;-84
2023/05/04 00:17:11;;;;;;;;;;;;;;;;;;6208966;22;19997;-84
2023/05/04 00:19:39;;;;;;;;;;;;;;;;;;6237049;22;19915;-84
2023/05/04 00:22:05;;;;;;;;;;;;;;;;;;6235013;22;20221;-84
2023/05/04 00:24:31;;;;;;;;;;;;;;;;;;6211609;22;19941;-84
2023/05/04 00:26:57;;;;;;;;;;;;;;;;;;6235330;22;19922;-83
2023/05/04 00:29:23;;;;;;;;;;;;;;;;;;6208636;22;19919;-83
2023/05/04 00:31:49;;;;;;;;;;;;;;;;;;6236119;22;20334;-83
2023/05/04 00:34:15;;;;;;;;;;;;;;;;;;6205017;22;19926;-84
2023/05/04 00:36:41;;;;;;;;;;;;;;;;;;6235483;22;19923;-84
2023/05/04 00:39:07;;;;;;;;;;;;;;;;;;6231700;22;19919;-84
2023/05/04 00:41:33;;;;;;;;;;;;;;;;;;6209986;22;19922;-84
2023/05/04 00:44:01;;;;;;;;;;;;;;;;;;6236849;22;19954;-84
2023/05/04 00:46:30;;;;;;;;;;;;;;;;;;6209723;22;20312;-84
2023/05/04 00:48:58;;;;;;;;;;;;;;;;;;6235871;22;19919;-84
2023/05/04 00:51:25;;;;;;;;;;;;;;;;;;6205499;22;19951;-84
2023/05/04 00:53:58;;;;;;;;;;;;;;;;;;6209949;22;19919;-85
2023/05/04 00:56:24;;;;;;;;;;;;;;;;;;6232164;22;19923;-84
2023/05/04 00:58:53;;;;;;;;;;;;;;;;;;6236934;22;19957;-84
2023/05/04 01:01:19;;;;;;;;;;;;;;;;;;6210185;22;19919;-84
2023/05/04 01:03:45;;;;;;;;;;;;;;;;;;6212207;22;19972;-84
2023/05/04 01:06:15;;;;;;;;;;;;;;;;;;6210831;22;19915;-84
2023/05/04 01:08:41;;;;;;;;;;;;;;;;;;6212790;22;19994;-84
2023/05/04 01:11:18;;;;;;;;;;;;;;;;;;6210106;22;19947;-84
2023/05/04 01:13:44;;;;;;;;;;;;;;;;;;6238571;22;20276;-83
2023/05/04 01:16:10;;;;;;;;;;;;;;;;;;6234934;22;19974;-83
2023/05/04 01:18:36;;;;;;;;;;;;;;;;;;6238628;22;19915;-83
2023/05/04 01:21:05;;;;;;;;;;;;;;;;;;6238197;22;19925;-83
2023/05/04 01:23:37;;;;;;;;;;;;;;;;;;6214270;22;19927;-83
2023/05/04 01:26:03;;;;;;;;;;;;;;;;;;6210897;22;19915;-83
2023/05/04 01:28:29;;;;;;;;;;;;;;;;;;6210749;22;19950;-83
2023/05/04 01:30:55;;;;;;;;;;;;;;;;;;6209783;22;19919;-83
2023/05/04 01:33:21;;;;;;;;;;;;;;;;;;6208751;22;20253;-83
2023/05/04 01:35:48;;;;;;;;;;;;;;;;;;6236060;22;20020;-83
2023/05/04 01:38:14;;;;;;;;;;;;;;;;;;6235104;22;20037;-83
2023/05/04 01:40:40;;;;;;;;;;;;;;;;;;6208133;22;20028;-84
2023/05/04 01:43:09;;;;;;;;;;;;;;;;;;6234420;22;19997;-83
2023/05/04 01:45:35;;;;;;;;;;;;;;;;;;6212187;22;19919;-83
2023/05/04 01:48:01;;;;;;;;;;;;;;;;;;6262759;22;19919;-83
2023/05/04 01:50:27;;;;;;;;;;;;;;;;;;6262580;22;20304;-83
2023/05/04 01:52:53;;;;;;;;;;;;;;;;;;6213126;22;20332;-83
2023/05/04 01:55:22;;;;;;;;;;;;;;;;;;6209558;22;20010;-83
2023/05/04 01:57:48;;;;;;;;;;;;;;;;;;6210552;22;19927;-83
2023/05/04 02:00:14;;;;;;;;;;;;;;;;;;6209805;22;20232;-83
2023/05/04 02:02:40;;;;;;;;;;;;;;;;;;6234014;22;19990;-83
2023/05/04 02:05:06;;;;;;;;;;;;;;;;;;6209783;22;19954;-83
2023/05/04 02:07:32;;;;;;;;;;;;;;;;;;6213672;22;20179;-83
2023/05/04 02:09:58;;;;;;;;;;;;;;;;;;6241836;22;20366;-83
2023/05/04 02:12:24;;;;;;;;;;;;;;;;;;6211252;22;19990;-83
2023/05/04 02:14:50;;;;;;;;;;;;;;;;;;6215267;22;19926;-84
2023/05/04 02:17:16;;;;;;;;;;;;;;;;;;6235538;22;19961;-83
2023/05/04 02:19:42;;;;;;;;;;;;;;;;;;6210668;22;20340;-83
2023/05/04 02:22:08;;;;;;;;;;;;;;;;;;6234685;22;19926;-83
2023/05/04 02:24:34;;;;;;;;;;;;;;;;;;6239075;22;20295;-83
2023/05/04 02:27:00;;;;;;;;;;;;;;;;;;6238660;22;20321;-84
2023/05/04 02:29:26;;;;;;;;;;;;;;;;;;6209243;22;19919;-83
2023/05/04 02:31:52;;;;;;;;;;;;;;;;;;6235766;22;19980;-83
2023/05/04 02:34:18;;;;;;;;;;;;;;;;;;6208518;22;19922;-83
2023/05/04 02:36:45;;;;;;;;;;;;;;;;;;6212509;22;19919;-83
2023/05/04 02:39:11;;;;;;;;;;;;;;;;;;6233845;22;20392;-83
2023/05/04 02:41:37;;;;;;;;;;;;;;;;;;6236298;22;20659;-83
2023/05/04 02:44:03;;;;;;;;;;;;;;;;;;6208604;22;19930;-83
2023/05/04 02:46:31;;;;;;;;;;;;;;;;;;6235673;22;20244;-83
2023/05/04 02:48:57;;;;;;;;;;;;;;;;;;6263350;22;19919;-83
2023/05/04 02:51:23;;;;;;;;;;;;;;;;;;6231551;22;20749;-83
2023/05/04 02:53:49;;;;;;;;;;;;;;;;;;6264595;22;19926;-83
2023/05/04 02:56:15;;;;;;;;;;;;;;;;;;6209598;22;19930;-84
2023/05/04 02:58:41;;;;;;;;;;;;;;;;;;6237087;22;19951;-84
2023/05/04 03:01:07;;;;;;;;;;;;;;;;;;6210175;22;19916;-83
2023/05/04 03:03:33;;;;;;;;;;;;;;;;;;6211730;22;20468;-84
2023/05/04 03:05:58;;;;;;;;;;;;;;;;;;6209264;22;20069;-83
2023/05/04 03:08:25;;;;;;;;;;;;;;;;;;6206479;22;19919;-83
2023/05/04 03:10:50;;;;;;;;;;;;;;;;;;6208449;22;19923;-83
2023/05/04 03:13:16;;;;;;;;;;;;;;;;;;6208287;22;20022;-83
2023/05/04 03:15:42;;;;;;;;;;;;;;;;;;6209048;22;19923;-83
2023/05/04 03:18:11;;;;;;;;;;;;;;;;;;6232587;22;20122;-83
2023/05/04 03:20:37;;;;;;;;;;;;;;;;;;6211945;22;20358;-83
2023/05/04 03:23:05;;;;;;;;;;;;;;;;;;6210497;22;20078;-83
2023/05/04 03:25:31;;;;;;;;;;;;;;;;;;6209392;22;19923;-83
2023/05/04 03:27:57;;;;;;;;;;;;;;;;;;6211124;22;19972;-83
2023/05/04 03:30:23;;;;;;;;;;;;;;;;;;6231931;22;19954;-83
2023/05/04 03:32:49;;;;;;;;;;;;;;;;;;6234878;22;19919;-83
2023/05/04 03:35:15;;;;;;;;;;;;;;;;;;6205790;22;19919;-83
2023/05/04 03:37:41;;;;;;;;;;;;;;;;;;6209377;22;19931;-83
2023/05/04 03:40:08;;;;;;;;;;;;;;;;;;6206168;22;20234;-83
2023/05/04 03:42:33;;;;;;;;;;;;;;;;;;6233327;22;20123;-82
2023/05/04 03:45:00;;;;;;;;;;;;;;;;;;6263138;22;19941;-82
2023/05/04 03:47:26;;;;;;;;;;;;;;;;;;6230446;22;19950;-83
2023/05/04 03:49:52;;;;;;;;;;;;;;;;;;6234842;22;20418;-83
2023/05/04 03:52:18;;;;;;;;;;;;;;;;;;6232198;22;20074;-83
2023/05/04 03:54:44;;;;;;;;;;;;;;;;;;6234574;22;19994;-83
2023/05/04 03:57:10;;;;;;;;;;;;;;;;;;6230783;22;19923;-83
2023/05/04 03:59:36;;;;;;;;;;;;;;;;;;6208615;22;20306;-83
2023/05/04 04:02:05;;;;;;;;;;;;;;;;;;6208168;22;19923;-83
2023/05/04 04:04:31;;;;;;;;;;;;;;;;;;6232626;22;19919;-83
2023/05/04 04:06:57;;;;;;;;;;;;;;;;;;6235905;22;20045;-83
2023/05/04 04:09:23;;;;;;;;;;;;;;;;;;6207750;22;20284;-83
2023/05/04 04:11:49;;;;;;;;;;;;;;;;;;6236918;22;19915;-82
2023/05/04 04:14:15;;;;;;;;;;;;;;;;;;6232775;22;19940;-82
2023/05/04 04:16:40;;;;;;;;;;;;;;;;;;6209134;22;19927;-82
2023/05/04 04:19:06;;;;;;;;;;;;;;;;;;6231266;22;19915;-82
2023/05/04 04:21:32;;;;;;;;;;;;;;;;;;6207826;22;19923;-83
2023/05/04 04:23:58;;;;;;;;;;;;;;;;;;6234075;22;19923;-83
2023/05/04 04:26:24;;;;;;;;;;;;;;;;;;6229303;22;19916;-82
2023/05/04 04:28:50;;;;;;;;;;;;;;;;;;6206805;22;19953;-82
2023/05/04 04:31:16;;;;;;;;;;;;;;;;;;6232650;22;19926;-82
2023/05/04 04:33:42;;;;;;;;;;;;;;;;;;6208396;22;20344;-83
2023/05/04 04:36:09;;;;;;;;;;;;;;;;;;6233716;22;20224;-83
2023/05/04 04:38:36;;;;;;;;;;;;;;;;;;6235495;22;19919;-82
2023/05/04 04:41:02;;;;;;;;;;;;;;;;;;6234243;22;19984;-83
2023/05/04 04:43:28;;;;;;;;;;;;;;;;;;6233935;22;20023;-83
2023/05/04 04:45:54;;;;;;;;;;;;;;;;;;6208902;22;20288;-83
2023/05/04 04:48:21;;;;;;;;;;;;;;;;;;6234540;22;19931;-83
2023/05/04 04:50:47;;;;;;;;;;;;;;;;;;6234656;22;19941;-83
2023/05/04 04:53:13;;;;;;;;;;;;;;;;;;6232141;22;20399;-83
2023/05/04 04:55:39;;;;;;;;;;;;;;;;;;6212324;22;19950;-84
2023/05/04 04:58:07;;;;;;;;;;;;;;;;;;6230910;22;20081;-83
2023/05/04 05:00:34;;;;;;;;;;;;;;;;;;6234789;22;19927;-83
2023/05/04 05:03:00;;;;;;;;;;;;;;;;;;6233513;22;19915;-84
2023/05/04 05:05:26;;;;;;;;;;;;;;;;;;6205600;22;19999;-83
2023/05/04 05:07:52;;;;;;;;;;;;;;;;;;6212197;22;19923;-83
2023/05/04 05:10:19;;;;;;;;;;;;;;;;;;6208351;22;19919;-83
2023/05/04 05:12:45;;;;;;;;;;;;;;;;;;6234095;22;19964;-83
2023/05/04 05:15:11;;;;;;;;;;;;;;;;;;6234060;22;20547;-83
2023/05/04 05:17:38;;;;;;;;;;;;;;;;;;6236463;22;19923;-83
2023/05/04 05:20:08;;;;;;;;;;;;;;;;;;6209235;22;20374;-83
2023/05/04 05:22:35;;;;;;;;;;;;;;;;;;6211726;22;19959;-83
2023/05/04 05:25:10;;;;;;;;;;;;;;;;;;6238819;22;19923;-83
2023/05/04 05:27:36;;;;;;;;;;;;;;;;;;6212359;22;19919;-83
2023/05/04 05:30:05;;;;;;;;;;;;;;;;;;6214012;22;20001;-83
2023/05/04 05:32:31;;;;;;;;;;;;;;;;;;6210666;22;19966;-82
2023/05/04 05:34:57;;;;;;;;;;;;;;;;;;6239986;22;19915;-83
2023/05/04 05:37:23;;;;;;;;;;;;;;;;;;6211472;22;19927;-83
2023/05/04 05:39:50;;;;;;;;;;;;;;;;;;6239898;22;19965;-83
2023/05/04 05:42:15;;;;;;;;;;;;;;;;;;6235294;22;20352;-82
2023/05/04 05:44:41;;;;;;;;;;;;;;;;;;6266845;22;20011;-82
2023/05/04 05:47:07;;;;;;;;;;;;;;;;;;6213304;22;20221;-83
2023/05/04 05:49:33;;;;;;;;;;;;;;;;;;6211725;22;19938;-83
2023/05/04 05:51:59;;;;;;;;;;;;;;;;;;6233380;22;19937;-83
2023/05/04 05:54:26;;;;;;;;;;;;;;;;;;6238163;22;20300;-83
2023/05/04 05:56:52;;;;;;;;;;;;;;;;;;6265587;22;20005;-83
2023/05/04 05:59:18;;;;;;;;;;;;;;;;;;6238151;22;19919;-83
2023/05/04 06:01:44;;;;;;;;;;;;;;;;;;6216045;22;20318;-84
2023/05/04 06:04:10;;;;;;;;;;;;;;;;;;6238476;22;19915;-83
2023/05/04 06:06:36;;;;;;;;;;;;;;;;;;6214669;22;19915;-83
2023/05/04 06:09:05;;;;;;;;;;;;;;;;;;6214191;22;19919;-83
2023/05/04 06:11:31;;;;;;;;;;;;;;;;;;6211727;22;20339;-83
2023/05/04 06:13:57;;;;;;;;;;;;;;;;;;6213355;22;19961;-82
2023/05/04 06:16:23;;;;;;;;;;;;;;;;;;6238581;22;20303;-83
2023/05/04 06:18:49;;;;;;;;;;;;;;;;;;6215388;22;19947;-83
2023/05/04 06:21:15;;;;;;;;;;;;;;;;;;6211578;22;20287;-83
2023/05/04 06:23:41;;;;;;;;;;;;;;;;;;6215700;22;19923;-83
2023/05/04 06:26:07;;;;;;;;;;;;;;;;;;6210361;22;19915;-83
2023/05/04 06:28:33;;;;;;;;;;;;;;;;;;6242072;22;20273;-82
2023/05/04 06:30:59;;;;;;;;;;;;;;;;;;6241621;22;20036;-82
2023/05/04 06:33:25;;;;;;;;;;;;;;;;;;6212977;22;19919;-83
2023/05/04 06:35:51;;;;;;;;;;;;;;;;;;6213775;22;19919;-83
2023/05/04 06:38:17;;;;;;;;;;;;;;;;;;6234201;22;19926;-83
2023/05/04 06:40:43;;;;;;;;;;;;;;;;;;6240555;22;19982;-83
2023/05/04 06:43:09;;;;;;;;;;;;;;;;;;6213978;22;19980;-83
2023/05/04 06:45:35;;;;;;;;;;;;;;;;;;6213531;22;19919;-83
2023/05/04 06:48:01;;;;;;;;;;;;;;;;;;6215419;22;20368;-83
2023/05/04 06:50:27;;;;;;;;;;;;;;;;;;6238139;22;19920;-83
2023/05/04 06:52:53;;;;;;;;;;;;;;;;;;6240172;22;19982;-83
2023/05/04 06:55:19;;;;;;;;;;;;;;;;;;6210804;22;20285;-83
2023/05/04 06:57:45;;;;;;;;;;;;;;;;;;6214960;22;19930;-83
2023/05/04 07:00:11;;;;;;;;;;;;;;;;;;6237649;22;19919;-82
2023/05/04 07:02:37;;;;;;;;;;;;;;;;;;6214715;22;19922;-83
2023/05/04 07:05:03;;;;;;;;;;;;;;;;;;6235526;22;19978;-83
2023/05/04 07:07:29;;;;;;;;;;;;;;;;;;6214176;22;19952;-83
2023/05/04 07:09:55;;;;;;;;;;;;;;;;;;6239371;22;19934;-83
2023/05/04 07:12:21;;;;;;;;;;;;;;;;;;6212389;22;19938;-83
2023/05/04 07:14:47;;;;;;;;;;;;;;;;;;6239062;22;19915;-83
2023/05/04 07:17:13;;;;;;;;;;;;;;;;;;6237822;22;19948;-83
2023/05/04 07:19:40;;;;;;;;;;;;;;;;;;6239194;22;19974;-83
2023/05/04 07:22:06;;;;;;;;;;;;;;;;;;6236003;22;19997;-83
2023/05/04 07:24:32;;;;;;;;;;;;;;;;;;6214364;22;20003;-83
2023/05/04 07:26:58;;;;;;;;;;;;;;;;;;6212873;22;19999;-83
2023/05/04 07:29:24;;;;;;;;;;;;;;;;;;6239115;22;19920;-83
2023/05/04 07:31:50;;;;;;;;;;;;;;;;;;6214626;22;19926;-83
2023/05/04 07:34:16;;;;;;;;;;;;;;;;;;6238320;22;19919;-83
2023/05/04 07:36:42;;;;;;;;;;;;;;;;;;6238554;22;19927;-83
2023/05/04 07:39:08;;;;;;;;;;;;;;;;;;6237955;22;19919;-83
2023/05/04 07:41:35;;;;;;;;;;;;;;;;;;6214684;22;20618;-83
2023/05/04 07:44:04;;;;;;;;;;;;;;;;;;6215594;22;19926;-83
2023/05/04 07:46:30;;;;;;;;;;;;;;;;;;6213726;22;19965;-83
2023/05/04 07:48:56;;;;;;;;;;;;;;;;;;6213686;22;19918;-83
2023/05/04 07:51:25;;;;;;;;;;;;;;;;;;6211752;22;19923;-83
2023/05/04 07:53:51;;;;;;;;;;;;;;;;;;6239196;22;19922;-83
2023/05/04 07:56:17;;;;;;;;;;;;;;;;;;6210224;22;19923;-83
2023/05/04 07:58:43;;;;;;;;;;;;;;;;;;6239412;22;20317;-83
2023/05/04 08:01:09;;;;;;;;;;;;;;;;;;6211239;22;19980;-83
2023/05/04 08:03:35;;;;;;;;;;;;;;;;;;6215104;22;19919;-83
2023/05/04 08:06:01;;;;;;;;;;;;;;;;;;6213936;22;19961;-83
2023/05/04 08:08:27;;;;;;;;;;;;;;;;;;6212098;22;20334;-83
2023/05/04 08:10:53;;;;;;;;;;;;;;;;;;6239869;22;19949;-83
2023/05/04 08:13:19;;;;;;;;;;;;;;;;;;6235481;22;20222;-82
2023/05/04 08:15:45;;;;;;;;;;;;;;;;;;6237330;22;19958;-83
2023/05/04 08:18:14;;;;;;;;;;;;;;;;;;6209985;22;19930;-83
2023/05/04 08:20:40;;;;;;;;;;;;;;;;;;6236348;22;19923;-83
2023/05/04 08:23:07;;;;;;;;;;;;;;;;;;6235832;22;19924;-83
2023/05/04 08:25:33;;;;;;;;;;;;;;;;;;6239194;22;19920;-83
2023/05/04 08:27:59;;;;;;;;;;;;;;;;;;6239444;22;20002;-83
2023/05/04 08:30:25;;;;;;;;;;;;;;;;;;6235573;22;19915;-83
2023/05/04 08:32:54;;;;;;;;;;;;;;;;;;6214537;22;19942;-83
2023/05/04 08:35:22;;;;;;;;;;;;;;;;;;6238522;22;19923;-83
2023/05/04 08:37:48;;;;;;;;;;;;;;;;;;6239164;22;19974;-83
2023/05/04 08:40:14;;;;;;;;;;;;;;;;;;6209797;22;19919;-83
2023/05/04 08:42:40;;;;;;;;;;;;;;;;;;6214756;22;20012;-83
2023/05/04 08:45:06;;;;;;;;;;;;;;;;;;6239030;22;19919;-83
2023/05/04 08:47:32;;;;;;;;;;;;;;;;;;6238614;22;20404;-83
2023/05/04 08:49:58;;;;;;;;;;;;;;;;;;6239239;22;19950;-83
2023/05/04 08:52:24;;;;;;;;;;;;;;;;;;6212106;22;19926;-83
2023/05/04 08:54:50;;;;;;;;;;;;;;;;;;6213570;22;19915;-83
2023/05/04 08:57:16;;;;;;;;;;;;;;;;;;6237000;22;19942;-83
2023/05/04 08:59:42;;;;;;;;;;;;;;;;;;6239897;22;19923;-83
2023/05/04 09:02:08;;;;;;;;;;;;;;;;;;6213270;22;19915;-83
2023/05/04 09:04:35;;;;;;;;;;;;;;;;;;6213551;22;19950;-83
2023/05/04 09:07:01;;;;;;;;;;;;;;;;;;6214636;22;19921;-83
2023/05/04 09:09:27;;;;;;;;;;;;;;;;;;6213096;22;20299;-83
2023/05/04 09:11:53;;;;;;;;;;;;;;;;;;6214784;22;19915;-83
2023/05/04 09:14:19;;;;;;;;;;;;;;;;;;6211289;22;20277;-83
2023/05/04 09:16:45;;;;;;;;;;;;;;;;;;6240115;22;20305;-83
2023/05/04 09:19:11;;;;;;;;;;;;;;;;;;6240317;22;19915;-83
2023/05/04 09:21:37;;;;;;;;;;;;;;;;;;6241024;22;19919;-83
2023/05/04 09:24:03;;;;;;;;;;;;;;;;;;6266643;22;19999;-83
2023/05/04 09:26:29;;;;;;;;;;;;;;;;;;6215343;22;20374;-83
2023/05/04 09:28:55;;;;;;;;;;;;;;;;;;6216510;22;19922;-83
2023/05/04 09:31:22;;;;;;;;;;;;;;;;;;6211930;22;20461;-83
2023/05/04 09:33:48;;;;;;;;;;;;;;;;;;6213259;22;19919;-83
2023/05/04 09:36:14;;;;;;;;;;;;;;;;;;6237958;22;20374;-83
2023/05/04 09:38:40;;;;;;;;;;;;;;;;;;6240903;22;19946;-82
2023/05/04 09:41:06;;;;;;;;;;;;;;;;;;6236655;22;20192;-83
2023/05/04 09:43:32;;;;;;;;;;;;;;;;;;6214722;22;19926;-83
2023/05/04 09:46:00;;;;;;;;;;;;;;;;;;6214488;22;19919;-83
2023/05/04 09:48:27;;;;;;;;;;;;;;;;;;6239666;22;19919;-83
2023/05/04 09:50:53;;;;;;;;;;;;;;;;;;6239055;22;19919;-83
2023/05/04 09:53:19;;;;;;;;;;;;;;;;;;6238697;22;19919;-83
2023/05/04 09:55:45;;;;;;;;;;;;;;;;;;6238848;22;19920;-83
2023/05/04 09:58:12;;;;;;;;;;;;;;;;;;6214191;22;20422;-83
2023/05/04 10:00:38;;;;;;;;;;;;;;;;;;6241875;22;20289;-83
2023/05/04 10:03:04;;;;;;;;;;;;;;;;;;6267094;22;19915;-83
2023/05/04 10:05:30;;;;;;;;;;;;;;;;;;6241922;22;19919;-83
2023/05/04 10:07:56;;;;;;;;;;;;;;;;;;6215055;22;20384;-83
2023/05/04 10:10:22;;;;;;;;;;;;;;;;;;6214790;22;19927;-82
2023/05/04 10:12:48;;;;;;;;;;;;;;;;;;6216062;22;20005;-83
2023/05/04 10:15:14;;;;;;;;;;;;;;;;;;6214711;22;19916;-83
2023/05/04 10:17:40;;;;;;;;;;;;;;;;;;6240189;22;20002;-83
2023/05/04 10:20:06;;;;;;;;;;;;;;;;;;6212759;22;20312;-83
2023/05/04 10:22:45;;;;;;;;;;;;;;;;;;;;;
2023/05/04 10:25:18;;;;;;;;;;;;;;;;;;6206885;23;20026;-82
2023/05/04 10:27:44;;;;;;;;;;;;;;;;;;6210003;23;19990;-82
2023/05/04 10:30:10;;;;;;;;;;;;;;;;;;6208838;23;19951;-83
2023/05/04 10:32:38;;;;;;;;;;;;;;;;;;6208443;23;19939;-83
2023/05/04 10:35:04;;;;;;;;;;;;;;;;;;6207326;23;20253;-83
2023/05/04 10:40:29;;;;;;;;;;;;;;;;;;6147448;23;20000;-83
2023/05/04 10:42:55;;;;;;;;;;;;;;;;;;6206724;23;19919;-83
2023/05/04 10:45:21;;;;;;;;;;;;;;;;;;6235475;23;19982;-83
2023/05/04 10:50:59;;;;;;;;;;;;;;;;;;6153536;23;19968;-83
2023/05/04 10:53:43;;;;;;;;;;;;;;;;;;6009300;23;19922;-83
2023/05/04 10:56:09;;;;;;;;;;;;;;;;;;6096718;23;20245;-83
2023/05/04 10:58:35;;;;;;;;;;;;;;;;;;6118631;23;19956;-82
2023/05/04 11:01:01;;;;;;;;;;;;;;;;;;6094038;23;20367;-83
2023/05/04 11:03:27;;;;;;;;;;;;;;;;;;6117623;23;19932;-83
2023/05/04 11:05:53;;;;;;;;;;;;;;;;;;6117886;23;20361;-82
2023/05/04 11:08:19;;;;;;;;;;;;;;;;;;6093050;23;19917;-83
2023/05/04 11:10:45;;;;;;;;;;;;;;;;;;6094956;23;19939;-83
2023/05/04 11:13:11;;;;;;;;;;;;;;;;;;6116508;23;20273;-83
2023/05/04 11:15:37;;;;;;;;;;;;;;;;;;6119757;23;20250;-83
2023/05/04 11:18:03;;;;;;;;;;;;;;;;;;6091187;23;19924;-83
2023/05/04 11:20:29;;;;;;;;;;;;;;;;;;6119141;23;19916;-83
2023/05/04 11:22:55;;;;;;;;;;;;;;;;;;6097480;23;20325;-83
2023/05/04 11:25:21;;;;;;;;;;;;;;;;;;6177175;23;19916;-83
2023/05/04 11:27:47;;;;;;;;;;;;;;;;;;6234725;23;19942;-83
2023/05/04 11:30:13;;;;;;;;;;;;;;;;;;6236492;23;19994;-83
2023/05/04 11:32:41;;;;;;;;;;;;;;;;;;6183705;23;20410;-83
2023/05/04 11:35:07;;;;;;;;;;;;;;;;;;6182544;23;19942;-83
2023/05/04 11:37:33;;;;;;;;;;;;;;;;;;6208535;23;20403;-83
2023/05/04 11:39:59;;;;;;;;;;;;;;;;;;6206602;23;19926;-82
2023/05/04 11:42:25;;;;;;;;;;;;;;;;;;6180838;23;19919;-83
2023/05/04 11:44:51;;;;;;;;;;;;;;;;;;6209290;23;19981;-83
2023/05/04 11:47:17;;;;;;;;;;;;;;;;;;6207491;23;19923;-82
2023/05/04 11:49:43;;;;;;;;;;;;;;;;;;6210310;23;19938;-83
2023/05/04 11:52:09;;;;;;;;;;;;;;;;;;6181419;23;19938;-83
2023/05/04 11:54:38;;;;;;;;;;;;;;;;;;6185143;23;19916;-83
2023/05/04 11:57:04;;;;;;;;;;;;;;;;;;6179488;23;20419;-83
2023/05/04 11:59:30;;;;;;;;;;;;;;;;;;6210493;23;19919;-83
2023/05/04 12:01:56;;;;;;;;;;;;;;;;;;6183010;23;19991;-83
2023/05/04 12:04:22;;;;;;;;;;;;;;;;;;6181736;23;19966;-83
2023/05/04 12:06:48;;;;;;;;;;;;;;;;;;6209718;23;19919;-82
2023/05/04 12:09:15;;;;;;;;;;;;;;;;;;6208758;23;19966;-83
2023/05/04 12:11:41;;;;;;;;;;;;;;;;;;6237094;23;19923;-83
2023/05/04 12:14:12;;;;;;;;;;;;;;;;;;6207363;23;20006;-82
2023/05/04 12:16:38;;;;;;;;;;;;;;;;;;6210417;23;20317;-82
2023/05/04 12:19:04;;;;;;;;;;;;;;;;;;6235152;23;19930;-83
2023/05/04 12:21:30;;;;;;;;;;;;;;;;;;6208710;23;19990;-83
2023/05/04 12:23:56;;;;;;;;;;;;;;;;;;6223146;22;19974;-82
2023/05/04 12:26:22;;;;;;;;;;;;;;;;;;6236555;22;20936;-83
2023/05/04 12:28:48;;;;;;;;;;;;;;;;;;6238593;22;19915;-83
2023/05/04 12:31:14;;;;;;;;;;;;;;;;;;6211486;22;19977;-83
2023/05/04 12:33:40;;;;;;;;;;;;;;;;;;6238323;22;19927;-83
2023/05/04 12:36:07;;;;;;;;;;;;;;;;;;6238446;22;19919;-83
2023/05/04 12:38:33;;;;;;;;;;;;;;;;;;6235674;22;19922;-83
2023/05/04 12:41:03;;;;;;;;;;;;;;;;;;6239710;22;20316;-83
2023/05/04 12:43:29;;;;;;;;;;;;;;;;;;6214578;22;19915;-83
2023/05/04 12:45:55;;;;;;;;;;;;;;;;;;6237875;22;19919;-82
2023/05/04 12:48:21;;;;;;;;;;;;;;;;;;6211706;22;20476;-82
2023/05/04 12:50:47;;;;;;;;;;;;;;;;;;6238811;22;19944;-83
2023/05/04 12:53:13;;;;;;;;;;;;;;;;;;6237754;22;19921;-83
2023/05/04 12:55:39;;;;;;;;;;;;;;;;;;6239688;22;20360;-83
2023/05/04 12:58:05;;;;;;;;;;;;;;;;;;6239022;22;20010;-83
2023/05/04 13:00:31;;;;;;;;;;;;;;;;;;6241033;22;19919;-83
2023/05/04 13:02:57;;;;;;;;;;;;;;;;;;6215524;22;19915;-82
2023/05/04 13:05:23;;;;;;;;;;;;;;;;;;6238332;22;19994;-83
2023/05/04 13:07:49;;;;;;;;;;;;;;;;;;6239720;22;19946;-83
2023/05/04 13:10:15;;;;;;;;;;;;;;;;;;6213926;22;19919;-82
2023/05/04 13:12:41;;;;;;;;;;;;;;;;;;6215817;22;20426;-83
2023/05/04 13:15:07;;;;;;;;;;;;;;;;;;6239058;22;19920;-83
2023/05/04 13:17:33;;;;;;;;;;;;;;;;;;6241086;22;20252;-83
2023/05/04 13:20:00;;;;;;;;;;;;;;;;;;6218102;22;19922;-83
2023/05/04 13:22:26;;;;;;;;;;;;;;;;;;6239334;22;19923;-83
2023/05/04 13:24:52;;;;;;;;;;;;;;;;;;6239147;22;19969;-83
2023/05/04 13:27:18;;;;;;;;;;;;;;;;;;6236535;22;19919;-83
2023/05/04 13:29:44;;;;;;;;;;;;;;;;;;6211283;22;19915;-83
2023/05/04 13:32:13;;;;;;;;;;;;;;;;;;6234968;22;20342;-83
2023/05/04 13:34:42;;;;;;;;;;;;;;;;;;6213163;22;19974;-83
2023/05/04 13:37:11;;;;;;;;;;;;;;;;;;6262392;22;19959;-85
2023/05/04 13:39:37;;;;;;;;;;;;;;;;;;6178363;23;20384;-83
2023/05/04 13:42:06;;;;;;;;;;;;;;;;;;6198871;23;20415;-84
2023/05/04 13:44:32;;;;;;;;;;;;;;;;;;6148951;23;20455;-84
2023/05/04 13:46:58;;;;;;;;;;;;;;;;;;6149885;23;19954;-83
2023/05/04 13:49:24;;;;;;;;;;;;;;;;;;6198236;23;20301;-83
2023/05/04 13:51:50;;;;;;;;;;;;;;;;;;6200757;23;20322;-83
2023/05/04 13:54:16;;;;;;;;;;;;;;;;;;6150704;23;19926;-83
2023/05/04 13:56:44;;;;;;;;;;;;;;;;;;6153275;23;19943;-82
2023/05/04 13:59:10;;;;;;;;;;;;;;;;;;6151424;23;19920;-83
2023/05/04 14:01:36;;;;;;;;;;;;;;;;;;6175682;23;20321;-83
2023/05/04 14:04:02;;;;;;;;;;;;;;;;;;6172443;23;20027;-82
2023/05/04 14:06:29;;;;;;;;;;;;;;;;;;6158008;23;19920;-82
2023/05/04 14:09:18;;;;;;;;;;;;;;;;;;6191715;23;19945;-83
2023/05/04 14:11:47;;;;;;;;;;;;;;;;;;6164519;23;19917;-83
2023/05/04 14:14:14;;;;;;;;;;;;;;;;;;6162243;23;19938;-83
2023/05/04 14:16:46;;;;;;;;;;;;;;;;;;6237139;22;19929;-83
2023/05/04 14:19:12;;;;;;;;;;;;;;;;;;6244335;22;19927;-83
2023/05/04 14:21:45;;;;;;;;;;;;;;;;;;6228901;22;19915;-84
2023/05/04 14:24:30;;;;;;;;;;;;;;;;;;6220647;22;19919;-83
2023/05/04 14:26:56;;;;;;;;;;;;;;;;;;6226264;22;19927;-83
2023/05/04 14:29:23;;;;;;;;;;;;;;;;;;6221001;22;19930;-81
2023/05/04 14:31:52;;;;;;;;;;;;;;;;;;6223600;22;19919;-81
2023/05/04 14:34:20;;;;;;;;;;;;;;;;;;6228948;22;19915;-82
2023/05/04 14:36:54;;;;;;;;;;;;;;;;;;6228404;22;19947;-82
2023/05/04 14:39:28;;;;;;;;;;;;;;;;;;6223960;22;20017;-81
2023/05/04 14:42:16;;;;;;;;;;;;;;;;;;6269164;22;19926;-82
2023/05/04 14:44:42;;;;;;;;;;;;;;;;;;6223773;22;19928;-83
2023/05/04 14:47:08;;;;;;;;;;;;;;;;;;6222834;22;19926;-82
2023/05/04 14:49:40;;;;;;;;;;;;;;;;;;6213849;23;19927;-82
2023/05/04 14:52:28;;;;;;;;;;;;;;;;;;6188519;23;19916;-83
2023/05/04 14:54:56;;;;;;;;;;;;;;;;;;6163362;23;20085;-83
2023/05/04 14:57:21;;;;;;;;;;;;;;;;;;6170855;23;19951;-81
2023/05/04 14:59:47;;;;;;;;;;;;;;;;;;6173875;23;20353;-81
2023/05/04 15:02:14;;;;;;;;;;;;;;;;;;6147069;23;19920;-82
2023/05/04 15:04:40;;;;;;;;;;;;;;;;;;6171738;23;19926;-82
2023/05/04 15:07:07;;;;;;;;;;;;;;;;;;6172950;23;20330;-81
2023/05/04 15:09:34;;;;;;;;;;;;;;;;;;6155034;23;19922;-82
2023/05/04 15:12:03;;;;;;;;;;;;;;;;;;6170958;23;19920;-82
2023/05/04 15:14:29;;;;;;;;;;;;;;;;;;6178938;23;19922;-82
2023/05/04 15:17:00;;;;;;;;;;;;;;;;;;6159526;23;19930;-83
2023/05/04 15:19:42;;;;;;;;;;;;;;;;;;6176570;22;20354;-83
2023/05/04 15:22:08;;;;;;;;;;;;;;;;;;6207551;22;19991;-83
2023/05/04 15:24:35;;;;;;;;;;;;;;;;;;6216904;22;20031;-82
2023/05/04 15:27:02;;;;;;;;;;;;;;;;;;6242279;22;19954;-83
2023/05/04 15:29:31;;;;;;;;;;;;;;;;;;6209461;22;19926;-83
2023/05/04 15:31:57;;;;;;;;;;;;;;;;;;6209623;22;20408;-83
2023/05/04 15:34:23;;;;;;;;;;;;;;;;;;6207450;22;20000;-83
2023/05/04 15:39:44;;;;;;;;;;;;;;;;;;6229448;22;20321;-83
2023/05/04 15:42:12;;;;;;;;;;;;;;;;;;6207524;22;20493;-82
2023/05/04 15:44:38;;;;;;;;;;;;;;;;;;6208340;22;19990;-83
2023/05/04 15:47:04;;;;;;;;;;;;;;;;;;6235624;22;19923;-83
2023/05/04 15:49:30;;;;;;;;;;;;;;;;;;6238546;22;19916;-83
2023/05/04 15:51:56;;;;;;;;;;;;;;;;;;6211676;22;19923;-83
2023/05/04 15:54:23;;;;;;;;;;;;;;;;;;6235586;22;20265;-81
2023/05/04 15:56:50;;;;;;;;;;;;;;;;;;6210081;22;19942;-83
2023/05/04 15:59:16;;;;;;;;;;;;;;;;;;6231932;22;19915;-82
2023/05/04 16:01:42;;;;;;;;;;;;;;;;;;6207057;22;20322;-82
2023/05/04 16:04:08;;;;;;;;;;;;;;;;;;6206844;22;19923;-82
2023/05/04 16:06:34;;;;;;;;;;;;;;;;;;6233863;22;20032;-82
2023/05/04 16:09:00;;;;;;;;;;;;;;;;;;6211712;22;19927;-82
2023/05/04 16:11:26;;;;;;;;;;;;;;;;;;6236350;22;20291;-82
2023/05/04 16:13:55;;;;;;;;;;;;;;;;;;6237628;22;20332;-82
2023/05/04 16:16:21;;;;;;;;;;;;;;;;;;6232468;22;19919;-82
2023/05/04 16:18:46;;;;;;;;;;;;;;;;;;6207934;22;20248;-82
2023/05/04 16:21:13;;;;;;;;;;;;;;;;;;6208802;22;19919;-83
2023/05/04 16:23:40;;;;;;;;;;;;;;;;;;6212929;22;19927;-82
2023/05/04 16:26:06;;;;;;;;;;;;;;;;;;6234031;22;19979;-82
2023/05/04 16:28:32;;;;;;;;;;;;;;;;;;6240484;22;19998;-83
2023/05/04 16:30:58;;;;;;;;;;;;;;;;;;6215412;22;20241;-84
2023/05/04 16:33:25;;;;;;;;;;;;;;;;;;6210405;22;19930;-82
2023/05/04 16:35:54;;;;;;;;;;;;;;;;;;6236161;22;19919;-82
2023/05/04 16:38:20;;;;;;;;;;;;;;;;;;6230643;22;19908;-82
2023/05/04 16:40:46;;;;;;;;;;;;;;;;;;6237830;22;19915;-82
2023/05/04 16:43:12;;;;;;;;;;;;;;;;;;6236707;22;19950;-83
2023/05/04 16:45:38;;;;;;;;;;;;;;;;;;6239055;22;19919;-83
2023/05/04 16:48:04;;;;;;;;;;;;;;;;;;6210610;22;19919;-82
2023/05/04 16:50:30;;;;;;;;;;;;;;;;;;6236553;22;19989;-84